Time;durP1;ratioP1;P1;durP2;ratioP2;P2;SDS_P1;SDS_P2;PMS_P1;PMS_P2;Temp;Humidity;BMP_temperature;BMP_pressure;BME280_temperature;BME280_humidity;BME280_pressure;Samples;Min_cycle;Max_cycle;Signal;HPM_P1;HPM_P2
2022/08/11 00:01:48;;;;;;;17.92;8.07;;;;;;;20.39;49.71;102106.78;5013841;28;20315;-58
2022/08/11 00:04:15;;;;;;;14.23;7.65;;;;;;;20.40;49.66;102108.41;5013286;28;20053;-59
2022/08/11 00:06:43;;;;;;;14.13;7.45;;;;;;;20.35;49.80;102108.63;5013308;28;20022;-59
2022/08/11 00:09:17;;;;;;;17.48;7.60;;;;;;;20.31;50.07;102093.59;5013535;28;20091;-58
2022/08/11 00:11:48;;;;;;;;;;;;;;;20.43;48.13;102104.09;4996252;28;20363;-59
2022/08/11 00:14:18;;;;;;;15.60;7.90;;;;;;;20.34;50.16;102103.34;5013340;28;20004;-59
2022/08/11 00:16:53;;;;;;;15.77;7.97;;;;;;;20.30;50.03;102111.66;5013366;28;20054;-59
2022/08/11 00:19:27;;;;;;;16.05;7.72;;;;;;;20.18;50.18;102103.13;5013381;28;20033;-60
2022/08/11 00:21:54;;;;;;;14.70;7.72;;;;;;;20.15;50.39;102103.81;5013598;28;20049;-59
2022/08/11 00:24:22;;;;;;;14.13;7.65;;;;;;;20.12;50.40;102105.31;5012999;28;20026;-59
2022/08/11 00:26:50;;;;;;;14.63;8.00;;;;;;;19.98;50.89;102091.53;5013284;28;20029;-59
2022/08/11 00:29:16;;;;;;;16.08;7.68;;;;;;;20.00;50.83;102100.44;5013366;28;20072;-59
2022/08/11 00:31:49;;;;;;;18.00;7.90;;;;;;;19.95;50.70;102106.25;5012835;28;20109;-59
2022/08/11 00:34:19;;;;;;;13.83;7.80;;;;;;;19.92;50.84;102096.53;5013409;28;20033;-59
2022/08/11 00:36:56;;;;;;;17.77;7.60;;;;;;;19.92;50.48;102098.53;4994965;28;20338;-59
2022/08/11 00:39:24;;;;;;;13.98;7.68;;;;;;;19.90;50.76;102090.41;5012668;28;20084;-59
2022/08/11 00:41:52;;;;;;;13.68;7.47;;;;;;;19.86;50.97;102103.50;5012724;28;20026;-59
2022/08/11 00:44:36;;;;;;;14.75;8.07;;;;;;;19.84;50.60;102090.97;5012667;28;20478;-59
2022/08/11 00:47:32;;;;;;;15.98;8.15;;;;;;;19.86;50.72;102095.09;5012851;28;20030;-60
2022/08/11 00:50:07;;;;;;;16.40;8.00;;;;;;;19.83;50.91;102094.91;5012977;28;20133;-59
2022/08/11 00:52:41;;;;;;;16.92;8.20;;;;;;;19.78;51.31;102093.94;5012433;28;20531;-60
2022/08/11 00:55:29;;;;;;;16.33;8.23;;;;;;;19.74;51.33;102098.56;5012824;28;20073;-60
2022/08/11 00:58:26;;;;;;;16.00;8.00;;;;;;;19.76;51.06;102099.06;5012591;28;20079;-60
2022/08/11 01:01:09;;;;;;;15.88;7.88;;;;;;;19.62;50.97;102081.66;5012785;28;20037;-59
2022/08/11 01:03:50;;;;;;;17.03;7.67;;;;;;;19.68;51.42;102091.53;5012520;28;20034;-59
2022/08/11 01:06:31;;;;;;;16.95;8.25;;;;;;;19.61;51.11;102091.22;5012646;28;20095;-58
2022/08/11 01:09:34;;;;;;;15.40;8.32;;;;;;;19.59;51.63;102090.75;5012395;28;20030;-58
2022/08/11 01:12:08;;;;;;;15.88;7.72;;;;;;;19.51;51.77;102095.22;5012414;28;20092;-59
2022/08/11 01:14:54;;;;;;;16.35;8.25;;;;;;;19.47;52.04;102088.66;5012407;28;20030;-58
2022/08/11 01:17:25;;;;;;;15.23;7.78;;;;;;;19.41;52.15;102104.06;5011837;28;20040;-59
2022/08/11 01:20:13;;;;;;;14.45;7.90;;;;;;;19.40;52.14;102094.78;5012143;28;20112;-59
2022/08/11 01:22:57;;;;;;;15.25;8.05;;;;;;;19.32;52.78;102090.84;5012170;28;20358;-59
2022/08/11 01:25:40;;;;;;;15.07;7.80;;;;;;;19.26;52.58;102082.97;5012234;28;20040;-59
2022/08/11 01:28:26;;;;;;;15.80;8.30;;;;;;;19.24;52.86;102102.94;5012079;28;20064;-58
2022/08/11 01:31:13;;;;;;;16.20;7.88;;;;;;;19.17;52.85;102103.47;5012032;28;20037;-58
2022/08/11 01:34:13;;;;;;;15.65;7.93;;;;;;;19.14;53.37;102106.94;5011863;28;20026;-58
2022/08/11 01:37:16;;;;;;;13.25;7.57;;;;;;;19.10;53.25;102108.75;5012038;28;20088;-58
2022/08/11 01:40:12;;;;;;;16.65;7.97;;;;;;;19.03;53.67;102097.22;5011783;28;20117;-62
2022/08/11 01:45:49;;;;;;;13.75;7.57;;;;;;;18.99;53.88;102105.50;5012385;28;20045;-60
2022/08/11 01:48:43;;;;;;;14.80;7.78;;;;;;;18.98;53.95;102097.41;5011603;28;20086;-59
2022/08/11 01:51:11;;;;;;;;;;;;;;;19.02;53.01;102098.38;5012499;28;20507;-59
2022/08/11 01:53:51;;;;;;;14.90;7.95;;;;;;;18.93;54.15;102101.22;5012203;28;19913;-60
2022/08/11 01:56:45;;;;;;;16.58;8.27;;;;;;;18.84;54.63;102091.97;5012275;28;20034;-57
2022/08/11 01:59:18;;;;;;;17.10;7.90;;;;;;;18.83;55.00;102095.94;5011974;28;20088;-58
2022/08/11 02:02:02;;;;;;;;;;;;;;;18.86;53.96;102101.69;5012545;28;20269;-59
2022/08/11 02:04:55;;;;;;;15.68;8.20;;;;;;;18.74;54.66;102097.94;5011930;28;20027;-60
2022/08/11 02:07:48;;;;;;;16.60;8.30;;;;;;;18.70;55.32;102094.97;5011766;28;20026;-60
2022/08/11 02:13:55;;;;;;;17.48;8.77;;;;;;;18.62;55.52;102095.78;5012178;28;20100;-59
2022/08/11 02:16:27;;;;;;;15.75;8.50;;;;;;;18.55;55.88;102101.91;4967870;28;20095;-59
2022/08/11 02:25:01;;;;;;;16.73;8.70;;;;;;;18.39;56.34;102109.97;5012194;28;20080;-58
2022/08/11 02:27:40;;;;;;;18.13;8.63;;;;;;;18.35;56.19;102101.41;5011709;28;20046;-58
2022/08/11 02:30:19;;;;;;;16.10;8.52;;;;;;;18.36;56.64;102110.63;5011623;28;20049;-60
2022/08/11 02:33:22;;;;;;;16.08;8.38;;;;;;;18.33;56.32;102109.31;5011694;28;20030;-61
2022/08/11 02:36:07;;;;;;;15.60;8.20;;;;;;;18.28;56.34;102103.03;5006447;28;20046;-60
2022/08/11 02:38:53;;;;;;;15.73;9.10;;;;;;;18.25;56.39;102093.31;5011444;28;20446;-60
2022/08/11 02:44:35;;;;;;;16.27;8.30;;;;;;;18.18;57.33;102084.59;5011903;28;20168;-59
2022/08/11 02:47:05;;;;;;;16.67;8.68;;;;;;;18.16;57.28;102098.91;5011436;28;20075;-60
2022/08/11 02:49:52;;;;;;;17.48;8.55;;;;;;;18.12;57.69;102099.88;5011671;28;20085;-59
2022/08/11 02:52:36;;;;;;;16.88;8.35;;;;;;;18.06;57.35;102094.47;5011662;28;20669;-60
2022/08/11 02:55:13;;;;;;;18.30;9.13;;;;;;;17.99;58.32;102099.72;5011837;28;20030;-60
2022/08/11 02:57:50;;;;;;;16.63;9.05;;;;;;;17.95;58.03;102103.47;5014937;28;20034;-60
2022/08/11 03:00:17;;;;;;;18.77;8.70;;;;;;;17.87;58.75;102103.09;5015254;28;20061;-59
2022/08/11 03:03:12;;;;;;;17.85;8.23;;;;;;;17.84;58.61;102097.34;5015264;28;20026;-59
2022/08/11 03:05:44;;;;;;;16.25;8.75;;;;;;;17.82;58.76;102108.88;5014934;28;20042;-59
2022/08/11 03:08:31;;;;;;;17.30;9.00;;;;;;;17.77;58.66;102100.59;5014864;28;20092;-59
2022/08/11 03:17:32;;;;;;;16.35;9.13;;;;;;;17.57;59.35;102099.22;5015186;28;20119;-60
2022/08/11 03:20:20;;;;;;;19.30;8.82;;;;;;;17.52;60.12;102105.81;5014372;28;20096;-60
2022/08/11 03:22:58;;;;;;;17.38;9.35;;;;;;;17.49;59.99;102098.03;5014527;28;20018;-59
2022/08/11 03:25:50;;;;;;;18.38;9.02;;;;;;;17.50;59.77;102101.69;5014791;28;20041;-59
2022/08/11 03:28:27;;;;;;;18.63;10.05;;;;;;;17.43;60.12;102096.56;5014708;28;20057;-59
2022/08/11 03:31:23;;;;;;;17.45;9.50;;;;;;;17.40;60.25;102100.81;5014001;28;20498;-59
2022/08/11 03:34:02;;;;;;;17.10;9.35;;;;;;;17.31;61.05;102097.97;5014174;28;20042;-59
2022/08/11 03:36:51;;;;;;;18.05;9.65;;;;;;;17.31;60.80;102111.16;5014643;28;20057;-59
2022/08/11 03:39:47;;;;;;;18.33;9.60;;;;;;;17.30;60.58;102103.91;5014251;28;20029;-59
2022/08/11 03:42:22;;;;;;;15.98;8.98;;;;;;;17.29;60.76;102105.03;5014608;28;20178;-59
2022/08/11 03:45:15;;;;;;;19.75;9.50;;;;;;;17.27;61.09;102094.19;4996981;28;20452;-59
2022/08/11 03:47:51;;;;;;;18.13;9.52;;;;;;;17.18;61.35;102086.88;5014407;28;20062;-58
2022/08/11 03:51:00;;;;;;;18.20;9.07;;;;;;;17.28;60.11;102092.19;5014591;28;20396;-60
2022/08/11 03:53:44;;;;;;;20.02;9.52;;;;;;;17.21;61.03;102092.66;5014421;28;20057;-60
2022/08/11 03:56:10;;;;;;;17.48;9.70;;;;;;;17.18;61.78;102098.91;5014596;28;20038;-60
2022/08/11 03:59:05;;;;;;;19.33;10.13;;;;;;;17.15;60.99;102094.75;5014398;28;20030;-59
2022/08/11 04:01:51;;;;;;;17.73;9.80;;;;;;;17.11;61.27;102098.53;4996012;28;20148;-57
2022/08/11 04:04:57;;;;;;;18.38;10.00;;;;;;;17.06;61.57;102088.31;5013690;28;20069;-59
2022/08/11 04:07:40;;;;;;;19.45;10.88;;;;;;;17.03;62.18;102096.50;5013434;28;20025;-58
2022/08/11 04:10:42;;;;;;;19.45;9.80;;;;;;;17.00;61.94;102089.59;5013668;28;20026;-58
2022/08/11 04:13:26;;;;;;;17.55;9.40;;;;;;;16.96;62.33;102092.22;5013631;28;20160;-59
2022/08/11 04:16:10;;;;;;;18.25;10.40;;;;;;;16.93;61.91;102084.44;5013853;28;20053;-59
2022/08/11 04:18:53;;;;;;;17.73;10.03;;;;;;;16.93;62.83;102092.00;5013452;28;20030;-59
2022/08/11 04:21:33;;;;;;;17.92;10.13;;;;;;;16.87;62.76;102088.50;5013590;28;20311;-59
2022/08/11 04:24:08;;;;;;;18.52;9.88;;;;;;;16.80;63.40;102090.94;5013557;28;20144;-59
2022/08/11 04:27:06;;;;;;;18.38;10.52;;;;;;;16.78;63.21;102085.63;5013596;28;20089;-59
2022/08/11 04:29:57;;;;;;;18.30;10.75;;;;;;;16.77;63.93;102089.56;5013730;28;20036;-59
2022/08/11 04:32:38;;;;;;;19.30;10.40;;;;;;;16.75;62.97;102088.25;5012955;28;20052;-59
2022/08/11 04:35:23;;;;;;;20.08;11.00;;;;;;;16.80;63.59;102094.53;5013204;28;20038;-59
2022/08/11 04:38:04;;;;;;;19.10;10.63;;;;;;;16.75;64.13;102089.09;5013236;28;20037;-59
2022/08/11 04:40:53;;;;;;;19.35;10.75;;;;;;;16.74;63.95;102097.78;5013091;28;20446;-60
2022/08/11 04:43:37;;;;;;;18.17;10.77;;;;;;;16.71;64.46;102090.84;5013038;28;20033;-59
2022/08/11 04:46:19;;;;;;;20.15;11.10;;;;;;;16.69;63.90;102088.38;5012900;28;20081;-59
2022/08/11 05:01:40;;;;;;;20.33;11.00;;;;;;;16.89;64.50;102089.00;5013037;28;20044;-59
2022/08/11 05:05:29;;;;;;;19.77;11.27;;;;;;;16.94;64.52;102093.69;5012723;28;20037;-59
2022/08/11 05:07:29;;;;;;;19.17;11.10;;;;;;;16.97;64.28;102093.88;5012814;28;20041;-59
2022/08/11 05:10:27;;;;;;;20.80;11.25;;;;;;;16.97;64.26;102093.88;5012587;28;20029;-59
2022/08/11 05:27:09;;;;;;;19.88;11.60;;;;;;;16.95;64.59;102089.75;5012664;28;20057;-59
2022/08/11 05:36:14;;;;;;;21.73;13.77;;;;;;;17.52;63.90;102097.41;5012639;28;20096;-59
2022/08/11 05:58:09;;;;;;;20.73;12.35;;;;;;;18.00;63.20;102106.94;5012439;28;20057;-60
2022/08/11 06:00:45;;;;;;;21.02;12.80;;;;;;;18.08;62.78;102103.38;5012361;28;20117;-59
2022/08/11 06:03:19;;;;;;;20.23;12.52;;;;;;;18.13;63.32;102107.13;5011653;28;20108;-59
2022/08/11 06:05:44;;;;;;;20.60;12.10;;;;;;;18.15;63.08;102102.84;5011767;28;20048;-59
2022/08/11 06:08:12;;;;;;;20.88;13.07;;;;;;;18.20;62.98;102099.91;5012053;28;20030;-59
2022/08/11 06:10:43;;;;;;;20.80;13.10;;;;;;;18.23;62.90;102092.81;5011975;28;20177;-59
2022/08/11 06:13:09;;;;;;;22.40;12.90;;;;;;;18.43;62.69;102107.34;5011902;28;20145;-58
2022/08/11 06:15:49;;;;;;;21.88;13.02;;;;;;;18.51;62.32;102101.75;5012235;28;20030;-59
2022/08/11 06:18:16;;;;;;;22.63;13.30;;;;;;;18.57;62.12;102102.38;5011924;28;20034;-58
2022/08/11 06:20:52;;;;;;;21.27;12.70;;;;;;;18.73;61.30;102110.28;5011785;28;20389;-59
2022/08/11 06:23:22;;;;;;;21.38;13.50;;;;;;;18.76;61.10;102099.22;5011467;28;20030;-59
2022/08/11 06:25:50;;;;;;;22.83;13.60;;;;;;;18.89;61.35;102107.78;5011688;28;20069;-59
2022/08/11 06:28:18;;;;;;;22.05;13.88;;;;;;;19.04;60.66;102110.09;5011586;28;20531;-59
2022/08/11 06:30:45;;;;;;;21.70;14.35;;;;;;;19.08;60.73;102107.44;5014940;28;20026;-59
2022/08/11 06:33:14;;;;;;;22.25;13.77;;;;;;;19.12;60.39;102111.25;5015285;28;20026;-59
2022/08/11 06:35:58;;;;;;;21.15;13.65;;;;;;;19.16;60.67;102106.59;5015369;28;20052;-58
2022/08/11 06:38:47;;;;;;;22.88;14.50;;;;;;;19.29;60.46;102114.00;5015935;28;20049;-58
2022/08/11 06:41:29;;;;;;;23.23;14.10;;;;;;;19.40;59.45;102108.00;5004635;28;20030;-58
2022/08/11 06:44:12;;;;;;;21.92;13.55;;;;;;;19.47;59.65;102105.50;4997952;28;20115;-59
2022/08/11 06:46:40;;;;;;;22.88;14.20;;;;;;;19.54;59.48;102100.19;5015723;28;20109;-59
2022/08/11 06:51:10;;;;;;;22.10;13.15;;;;;;;19.69;58.90;102106.41;5015438;28;20119;-59
2022/08/11 06:52:00;;;;;;;23.15;13.15;;;;;;;19.79;58.78;102106.81;5015350;28;20263;-59
2022/08/11 06:54:31;;;;;;;21.52;12.55;;;;;;;19.85;57.66;102095.38;5015674;28;20050;-58
2022/08/11 07:02:32;;;;;;;22.02;12.98;;;;;;;20.23;57.24;102112.19;5015581;28;20036;-62
2022/08/11 07:05:21;;;;;;;20.67;11.73;;;;;;;20.37;57.44;102125.97;5015396;28;20037;-59
2022/08/11 07:16:58;;;;;;;19.98;11.70;;;;;;;20.79;55.38;102104.63;5014924;28;20092;-59
2022/08/11 07:30:42;;;;;;;21.42;12.73;;;;;;;21.29;53.56;102102.75;5014924;28;20428;-59
2022/08/11 07:33:12;;;;;;;22.30;12.18;;;;;;;21.39;53.35;102104.28;5014471;28;20124;-59
2022/08/11 07:35:42;;;;;;;21.02;12.65;;;;;;;21.47;52.84;102111.78;5014604;28;20066;-60
2022/08/11 07:38:21;;;;;;;19.48;12.43;;;;;;;21.51;52.40;102105.13;5015080;28;20163;-59
2022/08/11 07:40:47;;;;;;;20.45;12.30;;;;;;;21.62;52.03;102113.97;5013647;28;20026;-59
2022/08/11 07:43:13;;;;;;;21.08;12.07;;;;;;;21.72;52.36;102115.47;5014047;28;20488;-59
2022/08/11 07:54:04;;;;;;;23.77;12.65;;;;;;;22.03;51.03;102105.59;5014734;28;20393;-59
2022/08/11 07:56:36;;;;;;;20.63;13.00;;;;;;;22.15;50.64;102113.19;5014241;28;20026;-58
2022/08/11 08:18:23;;;;;;;21.80;12.50;;;;;;;23.00;47.90;102116.06;5013692;28;20044;-60
2022/08/11 08:20:49;;;;;;;21.88;11.80;;;;;;;23.14;47.64;102123.28;5013820;28;20061;-59
2022/08/11 08:23:16;;;;;;;22.23;11.75;;;;;;;23.24;46.33;102119.16;5013807;28;20044;-59
2022/08/11 08:25:43;;;;;;;19.52;11.38;;;;;;;23.20;46.42;102099.28;5013588;28;20026;-59
2022/08/11 08:28:16;;;;;;;20.33;11.85;;;;;;;23.35;46.18;102095.66;5013014;28;20099;-60
2022/08/11 08:30:46;;;;;;;20.63;11.50;;;;;;;23.45;44.75;102099.13;5013787;28;20446;-58
2022/08/11 08:33:25;;;;;;;19.50;11.15;;;;;;;23.60;44.78;102109.56;5013586;28;20033;-60
2022/08/11 08:36:13;;;;;;;21.77;11.38;;;;;;;23.75;44.66;102110.75;5013422;28;20034;-59
2022/08/11 08:38:47;;;;;;;19.45;11.48;;;;;;;23.80;43.98;102106.81;5013602;28;20037;-59
2022/08/11 08:41:16;;;;;;;19.13;11.50;;;;;;;23.89;43.79;102109.44;5013324;28;20105;-59
2022/08/11 08:43:43;;;;;;;19.20;10.95;;;;;;;24.01;43.73;102111.34;5013644;28;20058;-59
2022/08/11 08:46:11;;;;;;;19.42;10.27;;;;;;;24.09;43.83;102101.84;5017573;28;20494;-59
2022/08/11 08:48:37;;;;;;;19.67;11.52;;;;;;;24.22;43.74;102105.34;4996762;28;20057;-59
2022/08/11 08:54:00;;;;;;;19.80;10.98;;;;;;;24.45;43.30;102099.78;5013356;28;20446;-59
2022/08/11 08:56:27;;;;;;;18.58;11.00;;;;;;;24.53;43.29;102097.94;5013891;28;20116;-60
2022/08/11 08:58:55;;;;;;;21.60;11.10;;;;;;;24.68;43.58;102111.19;5013250;28;20018;-60
2022/08/11 09:01:24;;;;;;;19.33;10.88;;;;;;;24.77;43.26;102103.28;5013092;28;20064;-60
2022/08/11 09:03:50;;;;;;;19.52;10.90;;;;;;;24.84;42.00;102099.00;5013251;28;20026;-59
2022/08/11 09:06:16;;;;;;;18.83;10.50;;;;;;;24.99;42.17;102100.88;5013174;28;20068;-60
2022/08/11 09:08:44;;;;;;;18.30;10.88;;;;;;;25.07;41.36;102105.47;5013256;28;20034;-60
2022/08/11 09:13:55;;;;;;;18.02;10.40;;;;;;;25.33;40.41;102097.44;5013163;28;20550;-59
2022/08/11 09:16:22;;;;;;;18.35;10.65;;;;;;;25.45;39.80;102107.78;5012965;28;20109;-59
2022/08/11 09:18:47;;;;;;;18.05;10.20;;;;;;;25.57;39.44;102101.91;5012294;28;20459;-59
2022/08/11 09:21:15;;;;;;;18.38;10.38;;;;;;;25.69;40.83;102098.84;5012662;28;20026;-59
2022/08/11 09:29:12;;;;;;;18.42;10.15;;;;;;;25.99;39.30;102098.06;5013467;28;20048;-59
2022/08/11 09:31:38;;;;;;;19.88;10.75;;;;;;;26.06;39.61;102099.41;5012604;28;20030;-59
2022/08/11 09:34:03;;;;;;;19.35;10.63;;;;;;;26.05;38.60;102090.06;5012055;28;20026;-59
2022/08/11 09:42:02;;;;;;;18.25;10.00;;;;;;;26.37;38.88;102075.53;5012511;28;20382;-60
2022/08/11 09:44:47;;;;;;;18.55;10.40;;;;;;;26.59;38.95;102089.97;5011983;28;20028;-60
2022/08/11 09:47:21;;;;;;;18.50;10.95;;;;;;;26.51;37.52;102074.88;5012087;28;20025;-59
2022/08/11 09:49:47;;;;;;;18.95;10.60;;;;;;;26.45;37.87;102084.94;5010871;28;20195;-59
2022/08/11 09:52:14;;;;;;;19.20;10.00;;;;;;;26.65;37.88;102088.41;5012157;28;20379;-60
2022/08/11 09:54:41;;;;;;;18.05;10.43;;;;;;;26.78;37.47;102080.47;5012311;28;20038;-59
2022/08/11 09:59:52;;;;;;;18.88;10.07;;;;;;;27.01;36.51;102080.31;5012505;28;20057;-60
2022/08/11 10:02:26;;;;;;;18.42;10.20;;;;;;;27.14;37.15;102080.81;5010714;28;20109;-60
2022/08/11 10:07:00;;;;;;;18.15;10.00;;;;;;;27.30;36.22;102079.75;5016193;28;20026;-59
2022/08/11 10:07:49;;;;;;;19.48;10.13;;;;;;;27.42;35.73;102079.44;5019029;28;20045;-59
2022/08/11 10:10:15;;;;;;;19.23;10.25;;;;;;;27.55;35.59;102068.59;5018993;28;20025;-59
2022/08/11 10:12:46;;;;;;;16.85;9.88;;;;;;;27.66;35.69;102072.31;5018326;28;20482;-59
2022/08/11 10:15:37;;;;;;;20.02;10.35;;;;;;;27.66;35.74;102060.16;5019256;28;20034;-60
2022/08/11 10:21:08;;;;;;;19.02;9.52;;;;;;;27.67;34.33;102036.22;5019004;28;20425;-59
2022/08/11 10:33:58;;;;;;;19.52;9.70;;;;;;;27.87;33.49;102057.41;5019056;28;20115;-59
2022/08/11 10:34:42;;;;;;;16.35;9.02;;;;;;;28.04;33.53;102043.72;5019083;28;20124;-59
2022/08/11 10:37:08;;;;;;;17.77;9.70;;;;;;;28.16;32.17;102049.06;5018678;28;20076;-59
2022/08/11 10:39:36;;;;;;;17.08;9.43;;;;;;;28.30;32.11;102056.84;5018309;28;20026;-59
2022/08/11 10:44:52;;;;;;;17.08;8.82;;;;;;;28.46;32.31;102050.00;5018821;28;20048;-59
2022/08/11 10:47:34;;;;;;;18.55;9.15;;;;;;;28.56;32.51;102048.38;5018169;28;20416;-59
2022/08/11 11:01:08;;;;;;;16.25;9.20;;;;;;;28.69;31.77;102040.28;5018473;28;20044;-59
2022/08/11 11:03:35;;;;;;;16.52;8.65;;;;;;;28.91;32.70;102036.28;5018481;28;20026;-59
2022/08/11 11:06:14;;;;;;;16.45;9.00;;;;;;;29.03;31.94;102031.41;5018286;28;20026;-59
2022/08/11 11:08:51;;;;;;;18.92;9.20;;;;;;;29.03;31.02;102028.56;5018117;28;20044;-59
2022/08/11 11:11:18;;;;;;;15.68;8.90;;;;;;;29.12;31.16;102023.28;5017880;28;20037;-59
2022/08/11 11:19:22;;;;;;;15.57;9.00;;;;;;;29.29;30.42;102020.81;5014929;28;20068;-59
2022/08/11 11:21:52;;;;;;;16.02;8.93;;;;;;;29.49;30.05;102026.91;5014967;28;20037;-58
2022/08/11 11:24:37;;;;;;;15.75;8.70;;;;;;;29.38;29.75;102007.78;5014888;28;20121;-60
2022/08/11 11:27:21;;;;;;;15.70;8.68;;;;;;;29.36;29.33;102018.81;5014842;28;20036;-60
2022/08/11 11:30:11;;;;;;;13.82;8.15;;;;;;;29.38;28.87;102021.25;5014554;28;20117;-60
2022/08/11 11:33:10;;;;;;;14.85;8.30;;;;;;;29.37;28.14;102013.91;5014603;28;20030;-60
2022/08/11 11:36:20;;;;;;;16.00;8.27;;;;;;;29.46;29.39;102014.31;5014746;28;20033;-59
2022/08/11 11:38:46;;;;;;;14.15;8.80;;;;;;;29.60;28.44;102010.59;5014564;28;20078;-59
2022/08/11 11:41:23;;;;;;;15.70;8.80;;;;;;;29.70;28.34;102000.41;5014597;28;20052;-59
2022/08/11 11:43:49;;;;;;;14.93;8.60;;;;;;;29.82;27.82;101999.94;5014693;28;20033;-59
2022/08/11 11:46:16;;;;;;;13.93;8.27;;;;;;;29.96;27.41;101998.31;5014289;28;20018;-59
2022/08/11 11:48:42;;;;;;;15.73;8.52;;;;;;;30.00;27.16;101999.91;5014004;28;20065;-59
2022/08/11 11:51:08;;;;;;;14.20;8.40;;;;;;;30.06;26.21;101996.59;5012945;28;20116;-60
2022/08/11 11:53:34;;;;;;;15.88;9.00;;;;;;;30.13;26.40;102002.31;5014385;28;20060;-58
2022/08/11 11:56:02;;;;;;;16.77;8.73;;;;;;;30.20;26.98;101993.69;5014562;28;20071;-58
2022/08/11 12:01:15;;;;;;;16.70;8.73;;;;;;;30.35;26.58;102000.94;5014706;28;20053;-60
2022/08/11 12:03:43;;;;;;;15.68;8.85;;;;;;;30.29;25.96;101982.63;5014271;28;20080;-60
2022/08/11 12:06:15;;;;;;;16.65;8.70;;;;;;;30.35;26.87;101980.16;5013979;28;20450;-60
2022/08/11 12:08:41;;;;;;;15.63;8.88;;;;;;;30.42;26.69;101990.72;5013793;28;20092;-59
2022/08/11 12:13:59;;;;;;;16.23;8.57;;;;;;;30.52;26.44;101983.31;5014423;28;20496;-59
2022/08/11 12:16:25;;;;;;;14.70;8.90;;;;;;;30.44;26.28;101983.38;5014018;28;20029;-59
2022/08/11 12:18:57;;;;;;;16.83;8.80;;;;;;;30.45;26.34;101981.31;4996007;28;20080;-59
2022/08/11 12:21:24;;;;;;;17.17;8.90;;;;;;;30.47;26.39;101979.66;5013934;28;20060;-59
2022/08/11 12:29:16;;;;;;;17.85;8.40;;;;;;;30.57;26.45;101969.44;5014146;28;20118;-59
2022/08/11 12:31:42;;;;;;;15.75;8.75;;;;;;;30.55;25.78;101963.31;5013552;28;20061;-60
2022/08/11 12:34:13;;;;;;;17.27;8.60;;;;;;;30.69;26.33;101956.69;5013546;28;20105;-60
2022/08/11 12:36:41;;;;;;;16.40;8.40;;;;;;;30.87;26.61;101950.00;5013327;28;20462;-59
2022/08/11 12:39:13;;;;;;;17.60;8.98;;;;;;;30.90;26.23;101949.97;5013080;28;20044;-59
2022/08/11 12:47:17;;;;;;;16.55;8.27;;;;;;;31.14;25.64;101946.53;5013487;28;20117;-59
2022/08/11 12:52:42;;;;;;;14.43;8.52;;;;;;;31.26;25.10;101937.41;5013717;28;20044;-59
2022/08/11 12:55:12;;;;;;;16.30;8.25;;;;;;;31.16;25.07;101936.31;5013794;28;20026;-60
2022/08/11 13:06:04;;;;;;;14.13;8.32;;;;;;;30.97;24.36;101931.97;5013365;28;20342;-63
2022/08/11 13:08:34;;;;;;;16.38;8.98;;;;;;;30.93;24.50;101909.16;5012970;28;20021;-59
2022/08/11 13:13:46;;;;;;;14.57;8.32;;;;;;;31.34;23.71;101924.66;5013401;28;20096;-59
2022/08/11 13:16:13;;;;;;;15.07;8.07;;;;;;;31.48;23.63;101911.44;5012843;28;20026;-58
2022/08/11 13:18:41;;;;;;;15.77;8.55;;;;;;;31.67;23.85;101907.13;5012837;28;20026;-59
2022/08/11 13:21:09;;;;;;;14.77;8.27;;;;;;;31.81;23.45;101909.00;5012726;28;20018;-59
2022/08/11 13:23:35;;;;;;;14.90;8.18;;;;;;;31.78;23.75;101901.31;5013133;28;20080;-60
2022/08/11 13:26:01;;;;;;;17.48;8.70;;;;;;;31.78;23.59;101907.03;5012366;28;20049;-59
2022/08/11 13:28:27;;;;;;;15.15;8.65;;;;;;;31.78;23.87;101902.09;5011246;28;20026;-59
2022/08/11 13:31:10;;;;;;;15.30;8.80;;;;;;;31.92;23.50;101889.66;5012489;28;20056;-60
2022/08/11 13:33:48;;;;;;;14.88;7.80;;;;;;;32.12;23.56;101892.59;5012826;28;20026;-60
2022/08/11 13:36:18;;;;;;;14.18;8.38;;;;;;;32.14;23.01;101904.44;5012853;28;20022;-60
2022/08/11 13:38:44;;;;;;;15.38;8.45;;;;;;;31.62;22.96;101896.97;5011797;28;20113;-59
2022/08/11 13:43:55;;;;;;;15.70;8.68;;;;;;;31.40;23.53;101885.00;5012680;28;20117;-60
2022/08/11 13:46:23;;;;;;;14.98;8.32;;;;;;;31.30;23.55;101880.22;5012286;28;20512;-60
2022/08/11 13:48:50;;;;;;;16.48;8.00;;;;;;;31.38;23.44;101890.31;5012394;28;20385;-59
2022/08/11 13:51:34;;;;;;;15.48;8.07;;;;;;;31.49;23.10;101885.28;5012441;28;20049;-60
2022/08/11 13:54:08;;;;;;;18.02;8.15;;;;;;;31.56;22.38;101882.31;5012654;28;20041;-60
2022/08/11 13:56:38;;;;;;;15.18;8.13;;;;;;;31.59;22.35;101874.97;5012551;28;20037;-60
2022/08/11 13:59:05;;;;;;;17.08;7.75;;;;;;;31.63;22.88;101869.97;5012152;28;20029;-60
2022/08/11 14:01:38;;;;;;;14.57;7.88;;;;;;;31.69;23.00;101874.00;5012050;28;20112;-59
2022/08/11 14:04:10;;;;;;;14.52;8.27;;;;;;;31.96;23.22;101872.41;5012419;28;20030;-60
2022/08/11 14:06:40;;;;;;;17.83;8.73;;;;;;;32.03;22.95;101870.28;5012302;28;20123;-60
2022/08/11 14:09:09;;;;;;;16.13;8.38;;;;;;;31.90;22.98;101872.09;4994232;28;20041;-61
2022/08/11 14:14:25;;;;;;;16.05;8.20;;;;;;;31.76;23.06;101855.94;5012372;28;20041;-59
2022/08/11 14:16:55;;;;;;;14.35;7.97;;;;;;;31.93;22.22;101859.78;5012131;28;20034;-60
2022/08/11 14:19:23;;;;;;;14.45;8.00;;;;;;;31.88;23.12;101863.94;5011877;28;20025;-59
2022/08/11 14:22:06;;;;;;;16.80;8.10;;;;;;;31.88;21.69;101863.94;5011627;28;20029;-60
2022/08/11 14:24:33;;;;;;;13.02;7.85;;;;;;;31.79;21.65;101860.00;4994526;28;20022;-59
2022/08/11 14:26:59;;;;;;;12.20;7.70;;;;;;;31.67;21.82;101852.78;5011787;28;20151;-59
2022/08/11 14:29:27;;;;;;;15.90;8.30;;;;;;;31.88;21.20;101857.44;5011936;28;20037;-59
2022/08/11 14:32:00;;;;;;;15.63;8.07;;;;;;;32.00;21.65;101845.38;5011774;28;20040;-59
2022/08/11 14:34:28;;;;;;;;;;;;;;;32.35;21.51;101853.84;5012367;28;20022;-59
2022/08/11 14:36:57;;;;;;;13.95;7.63;;;;;;;32.34;21.25;101849.38;5012001;28;19953;-60
2022/08/11 14:39:25;;;;;;;15.85;8.00;;;;;;;32.34;21.53;101850.19;5011691;28;20026;-61
2022/08/11 14:47:34;;;;;;;15.05;8.13;;;;;;;32.97;21.73;101850.69;5012096;28;20057;-60
2022/08/11 14:50:02;;;;;;;14.70;7.80;;;;;;;32.89;21.50;101852.91;4994529;28;20386;-60
2022/08/11 14:52:32;;;;;;;14.43;7.72;;;;;;;32.85;21.46;101845.63;5015436;28;20052;-60
2022/08/11 14:57:42;;;;;;;15.30;8.07;;;;;;;32.63;21.67;101838.22;5015608;28;20129;-60
2022/08/11 15:00:14;;;;;;;13.65;7.80;;;;;;;32.56;21.01;101846.94;5015063;28;20041;-60
2022/08/11 15:05:25;;;;;;;16.08;8.60;;;;;;;32.61;21.12;101831.31;5014841;28;20358;-60
2022/08/11 15:07:52;;;;;;;15.35;8.30;;;;;;;32.71;21.00;101824.56;5014691;28;20505;-60
2022/08/11 15:10:19;;;;;;;14.20;8.15;;;;;;;32.70;22.20;101822.16;5015545;28;20053;-60
2022/08/11 15:12:45;;;;;;;14.90;8.10;;;;;;;32.78;22.13;101818.72;5014786;28;20132;-60
2022/08/11 15:17:58;;;;;;;17.60;8.45;;;;;;;32.94;21.34;101812.28;5014992;28;20148;-59
2022/08/11 15:25:58;;;;;;;15.30;7.80;;;;;;;32.81;22.16;101800.66;5015101;28;20104;-59
2022/08/11 15:39:33;;;;;;;14.45;7.68;;;;;;;32.68;22.08;101791.09;5014722;28;20472;-60
2022/08/11 15:47:46;;;;;;;14.63;7.55;;;;;;;32.90;21.79;101779.22;5014464;28;20096;-60
2022/08/11 15:50:18;;;;;;;15.20;7.50;;;;;;;33.00;22.15;101781.06;5014617;28;20096;-59
2022/08/11 15:52:51;;;;;;;14.75;7.60;;;;;;;33.05;22.13;101780.56;5014126;28;20474;-59
2022/08/11 15:55:18;;;;;;;16.67;7.72;;;;;;;32.84;21.57;101787.50;5014815;28;20114;-59
2022/08/11 16:06:01;;;;;;;14.40;7.80;;;;;;;32.66;21.57;101790.72;5014858;28;20044;-60
2022/08/11 16:08:27;;;;;;;12.50;7.35;;;;;;;32.67;21.84;101770.22;4996700;28;20033;-60
2022/08/11 16:10:55;;;;;;;13.57;7.20;;;;;;;32.68;21.28;101771.03;5014120;28;20034;-59